ADDS METAR Data INFO
IDs: Format: Raw Decoded Include TAF

Data at: 0035 UTC 23 Oct 2017

KAUS 222353Z 35006KT 10SM FEW060 18/11 A3013 RMK AO2 SLP196 T01830106 10256 20183 53005 $